UAL1527 KSLC-KLAX
Flight info
| Callsign | UAL1527 |
|---|---|
| Flight time | 1h 36m |
| Altitude | 36000 |
| Route | WINEN LAKRR Q73 HAKMN ANJLL4 |
| Aircraft | A320/M-SDE3FGHIRWY/LB1 |
Departure
| Time | 2026-05-05 04:00 |
|---|---|
| Airport | Salt Lake City International Airport (KSLC) |
Arrival
| Time | 2026-05-05 05:36 |
|---|---|
| Airport | Los Angeles International Airport (KLAX) |
| Time | Latitude | Longitude | Altitude | Speed | Heading |
|---|---|---|---|---|---|
| 2026-05-05 03:19 | 40.78831 | -111.99000 | 4234 ft | 0 kts | 359° |
| 2026-05-05 03:45 | 40.78823 | -111.99000 | 4232 ft | 4 kts | 359° |
| 2026-05-05 03:46 | 40.78800 | -111.99000 | 4232 ft | 4 kts | 358° |
| 2026-05-05 03:46 | 40.78775 | -111.98994 | 4233 ft | 4 kts | 328° |
| 2026-05-05 03:46 | 40.78760 | -111.98970 | 4232 ft | 3 kts | 271° |
| 2026-05-05 03:46 | 40.78760 | -111.98959 | 4231 ft | 0 kts | 266° |
| 2026-05-05 03:50 | 40.78760 | -111.98962 | 4231 ft | 2 kts | 267° |
| 2026-05-05 03:50 | 40.78760 | -111.98964 | 4232 ft | 1 kts | 267° |
| 2026-05-05 03:50 | 40.78767 | -111.99015 | 4234 ft | 8 kts | 288° |
| 2026-05-05 03:51 | 40.78781 | -111.99079 | 4235 ft | 7 kts | 280° |
| 2026-05-05 03:51 | 40.78777 | -111.99145 | 4235 ft | 7 kts | 258° |
| 2026-05-05 03:51 | 40.78768 | -111.99204 | 4236 ft | 6 kts | 258° |
| 2026-05-05 03:51 | 40.78765 | -111.99246 | 4237 ft | 4 kts | 266° |
| 2026-05-05 03:52 | 40.78762 | -111.99282 | 4237 ft | 5 kts | 263° |
| 2026-05-05 03:52 | 40.78758 | -111.99331 | 4238 ft | 6 kts | 268° |
| 2026-05-05 03:52 | 40.78781 | -111.99376 | 4238 ft | 8 kts | 332° |
| 2026-05-05 03:52 | 40.78848 | -111.99391 | 4240 ft | 12 kts | 356° |
| 2026-05-05 03:53 | 40.78936 | -111.99400 | 4238 ft | 14 kts | 355° |
| 2026-05-05 03:53 | 40.79040 | -111.99413 | 4237 ft | 14 kts | 354° |
| 2026-05-05 03:53 | 40.79127 | -111.99424 | 4238 ft | 10 kts | 355° |
| 2026-05-05 03:53 | 40.79203 | -111.99433 | 4237 ft | 12 kts | 355° |
| 2026-05-05 03:54 | 40.79298 | -111.99443 | 4233 ft | 16 kts | 355° |
| 2026-05-05 03:54 | 40.79416 | -111.99457 | 4231 ft | 18 kts | 355° |
| 2026-05-05 03:54 | 40.79529 | -111.99469 | 4232 ft | 16 kts | 355° |
| 2026-05-05 03:54 | 40.79646 | -111.99483 | 4231 ft | 18 kts | 354° |
| 2026-05-05 03:55 | 40.79772 | -111.99500 | 4231 ft | 19 kts | 355° |
| 2026-05-05 03:55 | 40.79896 | -111.99512 | 4234 ft | 17 kts | 355° |
| 2026-05-05 03:55 | 40.80014 | -111.99526 | 4236 ft | 17 kts | 354° |
| 2026-05-05 03:55 | 40.80134 | -111.99541 | 4237 ft | 17 kts | 354° |
| 2026-05-05 03:56 | 40.80254 | -111.99555 | 4237 ft | 18 kts | 354° |
| 2026-05-05 03:56 | 40.80383 | -111.99569 | 4236 ft | 19 kts | 355° |
| 2026-05-05 03:56 | 40.80510 | -111.99584 | 4234 ft | 16 kts | 355° |
| 2026-05-05 03:56 | 40.80627 | -111.99597 | 4231 ft | 14 kts | 356° |
| 2026-05-05 03:57 | 40.80730 | -111.99608 | 4229 ft | 15 kts | 355° |
| 2026-05-05 03:57 | 40.80804 | -111.99646 | 4229 ft | 11 kts | 322° |
| 2026-05-05 03:57 | 40.80822 | -111.99729 | 4229 ft | 10 kts | 241° |
| 2026-05-05 03:57 | 40.80793 | -111.99773 | 4229 ft | 0 kts | 211° |
| 2026-05-05 03:58 | 40.80792 | -111.99773 | 4229 ft | 1 kts | 211° |
| 2026-05-05 03:58 | 40.80769 | -111.99833 | 4230 ft | 10 kts | 264° |
| 2026-05-05 03:58 | 40.80760 | -111.99917 | 4231 ft | 6 kts | 233° |
| 2026-05-05 03:59 | 40.80719 | -111.99922 | 4232 ft | 13 kts | 181° |
| 2026-05-05 03:59 | 40.80404 | -111.99886 | 4235 ft | 78 kts | 175° |
| 2026-05-05 03:59 | 40.79669 | -111.99805 | 4231 ft | 132 kts | 175° |
| 2026-05-05 03:59 | 40.78624 | -111.99684 | 4293 ft | 168 kts | 175° |
| 2026-05-05 04:00 | 40.77478 | -111.99518 | 4993 ft | 165 kts | 171° |
| 2026-05-05 04:00 | 40.76342 | -111.99276 | 5662 ft | 166 kts | 169° |
| 2026-05-05 04:00 | 40.75181 | -111.99046 | 6111 ft | 172 kts | 169° |
| 2026-05-05 04:00 | 40.73944 | -111.98794 | 6377 ft | 187 kts | 170° |
| 2026-05-05 04:01 | 40.72608 | -111.98565 | 6646 ft | 204 kts | 175° |
| 2026-05-05 04:01 | 40.71118 | -111.98485 | 6884 ft | 227 kts | 178° |
| 2026-05-05 04:01 | 40.69446 | -111.98422 | 7196 ft | 252 kts | 178° |
| 2026-05-05 04:01 | 40.67619 | -111.98349 | 7663 ft | 271 kts | 178° |
| 2026-05-05 04:02 | 40.65710 | -111.98268 | 8377 ft | 277 kts | 178° |
| 2026-05-05 04:02 | 40.63801 | -111.98183 | 9186 ft | 280 kts | 179° |
| 2026-05-05 04:02 | 40.61846 | -111.98108 | 9978 ft | 283 kts | 179° |
| 2026-05-05 04:02 | 40.59845 | -111.98041 | 10499 ft | 296 kts | 179° |
| 2026-05-05 04:03 | 40.57717 | -111.97960 | 10827 ft | 314 kts | 179° |
| 2026-05-05 04:03 | 40.55479 | -111.97864 | 11187 ft | 330 kts | 179° |
| 2026-05-05 04:03 | 40.53136 | -111.97753 | 11655 ft | 341 kts | 179° |
| 2026-05-05 04:03 | 40.50748 | -111.97628 | 12286 ft | 346 kts | 179° |
| 2026-05-05 04:04 | 40.48320 | -111.97492 | 12921 ft | 351 kts | 178° |
| 2026-05-05 04:04 | 40.45864 | -111.97345 | 13584 ft | 355 kts | 178° |
| 2026-05-05 04:04 | 40.43414 | -111.97190 | 14166 ft | 359 kts | 178° |
| 2026-05-05 04:04 | 40.40904 | -111.97064 | 14719 ft | 363 kts | 179° |
| 2026-05-05 04:05 | 40.38367 | -111.96992 | 15309 ft | 366 kts | 180° |
| 2026-05-05 04:05 | 40.35811 | -111.96976 | 15956 ft | 368 kts | 181° |
| 2026-05-05 04:05 | 40.33239 | -111.96947 | 16568 ft | 371 kts | 179° |
| 2026-05-05 04:05 | 40.30648 | -111.96843 | 17211 ft | 373 kts | 179° |
| 2026-05-05 04:06 | 40.28045 | -111.96703 | 17873 ft | 375 kts | 178° |
| 2026-05-05 04:06 | 40.25465 | -111.96554 | 18479 ft | 378 kts | 178° |
| 2026-05-05 04:06 | 40.22832 | -111.96408 | 19044 ft | 380 kts | 178° |
| 2026-05-05 04:06 | 40.20174 | -111.96272 | 19624 ft | 383 kts | 178° |
| 2026-05-05 04:07 | 40.17500 | -111.96146 | 20197 ft | 386 kts | 178° |
| 2026-05-05 04:07 | 40.14805 | -111.96029 | 20761 ft | 389 kts | 179° |
| 2026-05-05 04:07 | 40.12100 | -111.96157 | 21289 ft | 391 kts | 186° |
| 2026-05-05 04:07 | 40.09382 | -111.96555 | 21818 ft | 394 kts | 186° |
| 2026-05-05 04:08 | 40.06647 | -111.96961 | 22323 ft | 397 kts | 186° |
| 2026-05-05 04:08 | 40.03894 | -111.97375 | 22820 ft | 400 kts | 186° |
| 2026-05-05 04:08 | 40.01162 | -111.97785 | 23305 ft | 402 kts | 186° |
| 2026-05-05 04:08 | 39.98369 | -111.98195 | 23719 ft | 405 kts | 186° |
| 2026-05-05 04:09 | 39.95564 | -111.98603 | 24131 ft | 407 kts | 186° |
| 2026-05-05 04:09 | 39.92750 | -111.99012 | 24538 ft | 409 kts | 186° |
| 2026-05-05 04:09 | 39.89914 | -111.99423 | 24932 ft | 410 kts | 187° |
| 2026-05-05 04:09 | 39.87073 | -111.99837 | 25329 ft | 412 kts | 187° |
| 2026-05-05 04:10 | 39.84218 | -112.00251 | 25727 ft | 414 kts | 187° |
| 2026-05-05 04:10 | 39.81350 | -112.00671 | 26107 ft | 415 kts | 187° |
| 2026-05-05 04:10 | 39.78473 | -112.01091 | 26508 ft | 417 kts | 187° |
| 2026-05-05 04:10 | 39.75626 | -112.01507 | 26901 ft | 418 kts | 188° |
| 2026-05-05 04:11 | 39.72725 | -112.01930 | 27304 ft | 420 kts | 188° |
| 2026-05-05 04:11 | 39.69819 | -112.02352 | 27702 ft | 421 kts | 188° |
| 2026-05-05 04:11 | 39.66905 | -112.02774 | 28102 ft | 422 kts | 188° |
| 2026-05-05 04:11 | 39.63980 | -112.03198 | 28487 ft | 424 kts | 188° |
| 2026-05-05 04:12 | 39.61048 | -112.03624 | 28864 ft | 425 kts | 188° |
| 2026-05-05 04:12 | 39.58102 | -112.04052 | 29243 ft | 427 kts | 189° |
| 2026-05-05 04:12 | 39.55185 | -112.04475 | 29605 ft | 428 kts | 189° |
| 2026-05-05 04:12 | 39.52222 | -112.04904 | 29944 ft | 429 kts | 189° |
| 2026-05-05 04:13 | 39.49254 | -112.05333 | 30290 ft | 429 kts | 189° |
| 2026-05-05 04:13 | 39.46290 | -112.05757 | 30696 ft | 428 kts | 189° |
| 2026-05-05 04:13 | 39.43329 | -112.06179 | 31085 ft | 427 kts | 189° |
| 2026-05-05 04:13 | 39.40382 | -112.06597 | 31460 ft | 427 kts | 190° |
| 2026-05-05 04:14 | 39.37427 | -112.07014 | 31843 ft | 426 kts | 190° |
| 2026-05-05 04:14 | 39.34482 | -112.07429 | 32216 ft | 426 kts | 190° |
| 2026-05-05 04:14 | 39.31535 | -112.07846 | 32614 ft | 426 kts | 190° |
| 2026-05-05 04:14 | 39.28631 | -112.08258 | 32999 ft | 425 kts | 191° |
| 2026-05-05 04:15 | 39.25693 | -112.08675 | 33392 ft | 425 kts | 191° |
| 2026-05-05 04:15 | 39.22759 | -112.09091 | 33793 ft | 424 kts | 191° |
| 2026-05-05 04:15 | 39.19830 | -112.09507 | 34169 ft | 423 kts | 191° |
| 2026-05-05 04:15 | 39.16915 | -112.09922 | 34562 ft | 421 kts | 192° |
| 2026-05-05 04:16 | 39.14069 | -112.10623 | 34932 ft | 412 kts | 201° |
| 2026-05-05 04:16 | 39.11422 | -112.11920 | 35319 ft | 403 kts | 211° |
| 2026-05-05 04:16 | 39.08987 | -112.13656 | 35721 ft | 399 kts | 214° |
| 2026-05-05 04:16 | 39.06614 | -112.15398 | 35847 ft | 398 kts | 213° |
| 2026-05-05 04:17 | 39.01803 | -112.18902 | 35892 ft | 397 kts | 214° |
| 2026-05-05 04:17 | 38.97007 | -112.22393 | 35915 ft | 395 kts | 214° |
| 2026-05-05 04:18 | 38.92222 | -112.25866 | 35926 ft | 395 kts | 214° |
| 2026-05-05 04:18 | 38.87471 | -112.29309 | 35920 ft | 394 kts | 214° |
| 2026-05-05 04:19 | 38.82696 | -112.32764 | 35902 ft | 394 kts | 214° |
| 2026-05-05 04:19 | 38.77922 | -112.36229 | 35885 ft | 394 kts | 214° |
| 2026-05-05 04:20 | 38.73149 | -112.39683 | 35861 ft | 394 kts | 214° |
| 2026-05-05 04:20 | 38.68407 | -112.43098 | 35844 ft | 394 kts | 214° |
| 2026-05-05 04:21 | 38.63630 | -112.46531 | 35824 ft | 393 kts | 214° |
| 2026-05-05 04:21 | 38.58859 | -112.49954 | 35819 ft | 393 kts | 214° |
| 2026-05-05 04:22 | 38.54099 | -112.53377 | 35824 ft | 392 kts | 214° |
| 2026-05-05 04:22 | 38.49378 | -112.56776 | 35828 ft | 392 kts | 214° |
| 2026-05-05 04:23 | 38.44620 | -112.60178 | 35844 ft | 392 kts | 214° |
| 2026-05-05 04:23 | 38.39867 | -112.63565 | 35854 ft | 391 kts | 214° |
| 2026-05-05 04:24 | 38.35115 | -112.66955 | 35862 ft | 391 kts | 215° |
| 2026-05-05 04:25 | 38.28040 | -112.72001 | 35865 ft | 390 kts | 215° |
| 2026-05-05 04:25 | 38.23308 | -112.75368 | 35865 ft | 389 kts | 215° |
| 2026-05-05 04:26 | 38.18583 | -112.78723 | 35858 ft | 389 kts | 215° |
| 2026-05-05 04:26 | 38.13868 | -112.82074 | 35847 ft | 388 kts | 215° |
| 2026-05-05 04:27 | 38.09152 | -112.85416 | 35831 ft | 388 kts | 215° |
| 2026-05-05 04:27 | 38.04470 | -112.88720 | 35830 ft | 388 kts | 215° |
| 2026-05-05 04:28 | 37.99759 | -112.92038 | 35845 ft | 387 kts | 215° |
| 2026-05-05 04:28 | 37.95054 | -112.95350 | 35876 ft | 387 kts | 215° |
| 2026-05-05 04:29 | 37.90354 | -112.98657 | 35907 ft | 386 kts | 216° |
| 2026-05-05 04:29 | 37.85657 | -113.01965 | 35934 ft | 386 kts | 216° |
| 2026-05-05 04:30 | 37.80989 | -113.05237 | 35966 ft | 386 kts | 215° |
| 2026-05-05 04:30 | 37.76305 | -113.08539 | 35978 ft | 385 kts | 216° |
| 2026-05-05 04:31 | 37.71674 | -113.11937 | 35978 ft | 384 kts | 217° |
| 2026-05-05 04:31 | 37.67064 | -113.15359 | 35976 ft | 384 kts | 217° |
| 2026-05-05 04:32 | 37.62474 | -113.18738 | 35974 ft | 385 kts | 216° |
| 2026-05-05 04:32 | 37.57837 | -113.22132 | 35944 ft | 385 kts | 216° |
| 2026-05-05 04:33 | 37.53196 | -113.25509 | 35918 ft | 385 kts | 216° |
| 2026-05-05 04:33 | 37.48552 | -113.28881 | 35886 ft | 385 kts | 216° |
| 2026-05-05 04:34 | 37.43944 | -113.32228 | 35854 ft | 385 kts | 217° |
| 2026-05-05 04:34 | 37.39312 | -113.35588 | 35816 ft | 384 kts | 216° |
| 2026-05-05 04:35 | 37.34677 | -113.38942 | 35832 ft | 384 kts | 216° |
| 2026-05-05 04:35 | 37.30040 | -113.42299 | 35845 ft | 385 kts | 216° |
| 2026-05-05 04:36 | 37.25406 | -113.45651 | 35853 ft | 385 kts | 217° |
| 2026-05-05 04:36 | 37.20801 | -113.48986 | 35866 ft | 385 kts | 217° |
| 2026-05-05 04:37 | 37.16158 | -113.52337 | 35878 ft | 385 kts | 217° |
| 2026-05-05 04:37 | 37.11509 | -113.55681 | 35887 ft | 385 kts | 217° |
| 2026-05-05 04:38 | 37.06860 | -113.59022 | 35882 ft | 385 kts | 217° |
| 2026-05-05 04:38 | 37.02239 | -113.62335 | 35880 ft | 386 kts | 217° |
| 2026-05-05 04:39 | 36.97575 | -113.65671 | 35871 ft | 386 kts | 217° |
| 2026-05-05 04:39 | 36.92918 | -113.69006 | 35858 ft | 386 kts | 217° |
| 2026-05-05 04:40 | 36.88263 | -113.72335 | 35849 ft | 385 kts | 217° |
| 2026-05-05 04:40 | 36.83613 | -113.75656 | 35830 ft | 385 kts | 217° |
| 2026-05-05 04:41 | 36.78999 | -113.78942 | 35813 ft | 384 kts | 217° |
| 2026-05-05 04:41 | 36.74361 | -113.82247 | 35806 ft | 384 kts | 217° |
| 2026-05-05 04:42 | 36.69724 | -113.85542 | 35812 ft | 383 kts | 217° |
| 2026-05-05 04:42 | 36.65100 | -113.88820 | 35813 ft | 382 kts | 217° |
| 2026-05-05 04:43 | 36.60522 | -113.92064 | 35812 ft | 381 kts | 218° |
| 2026-05-05 04:43 | 36.55920 | -113.95321 | 35807 ft | 380 kts | 218° |
| 2026-05-05 04:44 | 36.51325 | -113.98566 | 35803 ft | 379 kts | 218° |
| 2026-05-05 04:44 | 36.46743 | -114.01793 | 35798 ft | 378 kts | 218° |
| 2026-05-05 04:45 | 36.42204 | -114.04997 | 35792 ft | 377 kts | 218° |
| 2026-05-05 04:45 | 36.37644 | -114.08212 | 35785 ft | 376 kts | 218° |
| 2026-05-05 04:46 | 36.33091 | -114.11405 | 35782 ft | 376 kts | 218° |
| 2026-05-05 04:46 | 36.28549 | -114.14589 | 35775 ft | 375 kts | 219° |
| 2026-05-05 04:47 | 36.24044 | -114.17756 | 35775 ft | 374 kts | 219° |
| 2026-05-05 04:47 | 36.19522 | -114.20926 | 35777 ft | 373 kts | 219° |
| 2026-05-05 04:48 | 36.15003 | -114.24081 | 35779 ft | 373 kts | 219° |
| 2026-05-05 04:48 | 36.10490 | -114.27233 | 35776 ft | 372 kts | 220° |
| 2026-05-05 04:48 | 36.08389 | -114.29009 | 35776 ft | 360 kts | 229° |
| 2026-05-05 04:49 | 36.06655 | -114.31184 | 35776 ft | 353 kts | 234° |
| 2026-05-05 04:49 | 36.03421 | -114.35686 | 35773 ft | 352 kts | 235° |
| 2026-05-05 04:50 | 36.00169 | -114.40208 | 35777 ft | 352 kts | 234° |
| 2026-05-05 04:50 | 35.96912 | -114.44718 | 35785 ft | 351 kts | 235° |
| 2026-05-05 04:51 | 35.93660 | -114.49210 | 35809 ft | 351 kts | 235° |
| 2026-05-05 04:51 | 35.90437 | -114.53661 | 35822 ft | 350 kts | 235° |
| 2026-05-05 04:52 | 35.87199 | -114.58124 | 35840 ft | 349 kts | 235° |
| 2026-05-05 04:52 | 35.83963 | -114.62569 | 35847 ft | 348 kts | 235° |
| 2026-05-05 04:53 | 35.80738 | -114.67003 | 35862 ft | 347 kts | 235° |
| 2026-05-05 04:53 | 35.77540 | -114.71396 | 35867 ft | 346 kts | 235° |
| 2026-05-05 04:54 | 35.74335 | -114.75797 | 35872 ft | 345 kts | 235° |
| 2026-05-05 04:54 | 35.71133 | -114.80180 | 35872 ft | 344 kts | 235° |
| 2026-05-05 04:55 | 35.67930 | -114.84553 | 35870 ft | 344 kts | 235° |
| 2026-05-05 04:55 | 35.64729 | -114.88922 | 35871 ft | 343 kts | 235° |
| 2026-05-05 04:56 | 35.61563 | -114.93257 | 35876 ft | 342 kts | 236° |
| 2026-05-05 04:56 | 35.58390 | -114.97598 | 35876 ft | 341 kts | 236° |
| 2026-05-05 04:57 | 35.55212 | -115.01931 | 35886 ft | 341 kts | 236° |
| 2026-05-05 04:57 | 35.52040 | -115.06254 | 35882 ft | 340 kts | 236° |
| 2026-05-05 04:58 | 35.48853 | -115.10543 | 35891 ft | 340 kts | 235° |
| 2026-05-05 04:58 | 35.45613 | -115.14776 | 35892 ft | 340 kts | 235° |
| 2026-05-05 04:59 | 35.42390 | -115.18960 | 35895 ft | 339 kts | 235° |
| 2026-05-05 04:59 | 35.39154 | -115.23161 | 35889 ft | 339 kts | 235° |
| 2026-05-05 05:00 | 35.35928 | -115.27362 | 35894 ft | 338 kts | 235° |
| 2026-05-05 05:00 | 35.32712 | -115.31553 | 35891 ft | 337 kts | 235° |
| 2026-05-05 05:01 | 35.29522 | -115.35708 | 35893 ft | 337 kts | 235° |
| 2026-05-05 05:01 | 35.26307 | -115.39883 | 35889 ft | 337 kts | 235° |
| 2026-05-05 05:02 | 35.23088 | -115.44049 | 35892 ft | 337 kts | 235° |
| 2026-05-05 05:02 | 35.19869 | -115.48217 | 35876 ft | 337 kts | 235° |
| 2026-05-05 05:03 | 35.16647 | -115.52377 | 35887 ft | 337 kts | 235° |
| 2026-05-05 05:03 | 35.13449 | -115.56504 | 35907 ft | 337 kts | 235° |
| 2026-05-05 05:04 | 35.10232 | -115.60659 | 35902 ft | 337 kts | 235° |
| 2026-05-05 05:04 | 35.06997 | -115.64796 | 35902 ft | 337 kts | 234° |
| 2026-05-05 05:05 | 35.03756 | -115.68921 | 35892 ft | 337 kts | 234° |
| 2026-05-05 05:05 | 35.00518 | -115.73048 | 35893 ft | 337 kts | 234° |
| 2026-05-05 05:06 | 34.97306 | -115.77150 | 35890 ft | 337 kts | 234° |
| 2026-05-05 05:06 | 34.94066 | -115.81282 | 35893 ft | 337 kts | 234° |
| 2026-05-05 05:07 | 34.90822 | -115.85410 | 35891 ft | 337 kts | 234° |
| 2026-05-05 05:07 | 34.87578 | -115.89531 | 35890 ft | 337 kts | 234° |
| 2026-05-05 05:08 | 34.84347 | -115.93627 | 35886 ft | 338 kts | 234° |
| 2026-05-05 05:08 | 34.81090 | -115.97747 | 35888 ft | 338 kts | 233° |
| 2026-05-05 05:09 | 34.77835 | -116.01868 | 35884 ft | 338 kts | 233° |
| 2026-05-05 05:09 | 34.74584 | -116.06001 | 35886 ft | 338 kts | 233° |
| 2026-05-05 05:10 | 34.71365 | -116.10115 | 35880 ft | 338 kts | 233° |
| 2026-05-05 05:10 | 34.68120 | -116.14247 | 35881 ft | 338 kts | 233° |
| 2026-05-05 05:11 | 34.64866 | -116.18378 | 35876 ft | 338 kts | 233° |
| 2026-05-05 05:11 | 34.61607 | -116.22511 | 35875 ft | 340 kts | 233° |
| 2026-05-05 05:11 | 34.59973 | -116.24585 | 35633 ft | 340 kts | 233° |
| 2026-05-05 05:12 | 34.58341 | -116.26656 | 35398 ft | 340 kts | 233° |
| 2026-05-05 05:12 | 34.56701 | -116.28734 | 35171 ft | 341 kts | 232° |
| 2026-05-05 05:12 | 34.55056 | -116.30815 | 34938 ft | 342 kts | 232° |
| 2026-05-05 05:12 | 34.53431 | -116.32868 | 34708 ft | 342 kts | 232° |
| 2026-05-05 05:13 | 34.51785 | -116.34949 | 34483 ft | 343 kts | 232° |
| 2026-05-05 05:13 | 34.50131 | -116.37039 | 34268 ft | 343 kts | 232° |
| 2026-05-05 05:13 | 34.48479 | -116.39129 | 34038 ft | 344 kts | 232° |
| 2026-05-05 05:13 | 34.46820 | -116.41227 | 33790 ft | 345 kts | 232° |
| 2026-05-05 05:14 | 34.45155 | -116.43331 | 33529 ft | 346 kts | 232° |
| 2026-05-05 05:14 | 34.43486 | -116.45438 | 33276 ft | 348 kts | 232° |
| 2026-05-05 05:14 | 34.41888 | -116.47635 | 33015 ft | 346 kts | 238° |
| 2026-05-05 05:14 | 34.40682 | -116.50145 | 32758 ft | 346 kts | 244° |
| 2026-05-05 05:15 | 34.39626 | -116.52727 | 32506 ft | 348 kts | 244° |
| 2026-05-05 05:15 | 34.38547 | -116.55349 | 32262 ft | 349 kts | 244° |
| 2026-05-05 05:15 | 34.37457 | -116.57990 | 32005 ft | 350 kts | 244° |
| 2026-05-05 05:15 | 34.36369 | -116.60625 | 31411 ft | 349 kts | 244° |
| 2026-05-05 05:16 | 34.35292 | -116.63238 | 30869 ft | 346 kts | 244° |
| 2026-05-05 05:16 | 34.34223 | -116.65827 | 30338 ft | 343 kts | 244° |
| 2026-05-05 05:16 | 34.33161 | -116.68404 | 29738 ft | 341 kts | 244° |
| 2026-05-05 05:16 | 34.32113 | -116.70986 | 29193 ft | 343 kts | 244° |
| 2026-05-05 05:17 | 34.31067 | -116.73590 | 28669 ft | 344 kts | 244° |
| 2026-05-05 05:17 | 34.30035 | -116.76159 | 28157 ft | 344 kts | 244° |
| 2026-05-05 05:17 | 34.28990 | -116.78766 | 27612 ft | 344 kts | 244° |
| 2026-05-05 05:17 | 34.27947 | -116.81369 | 27084 ft | 344 kts | 244° |
| 2026-05-05 05:18 | 34.26907 | -116.83963 | 26567 ft | 343 kts | 244° |
| 2026-05-05 05:18 | 34.25862 | -116.86559 | 26046 ft | 343 kts | 244° |
| 2026-05-05 05:18 | 34.24817 | -116.89143 | 25525 ft | 343 kts | 244° |
| 2026-05-05 05:18 | 34.23768 | -116.91734 | 25005 ft | 343 kts | 244° |
| 2026-05-05 05:19 | 34.22719 | -116.94322 | 24482 ft | 343 kts | 243° |
| 2026-05-05 05:19 | 34.21683 | -116.96879 | 23983 ft | 344 kts | 243° |
| 2026-05-05 05:19 | 34.20765 | -116.99549 | 23420 ft | 347 kts | 250° |
| 2026-05-05 05:19 | 34.20013 | -117.02328 | 22843 ft | 348 kts | 251° |
| 2026-05-05 05:20 | 34.19270 | -117.05095 | 22319 ft | 346 kts | 250° |
| 2026-05-05 05:20 | 34.18526 | -117.07867 | 21816 ft | 346 kts | 250° |
| 2026-05-05 05:20 | 34.17786 | -117.10615 | 21295 ft | 345 kts | 250° |
| 2026-05-05 05:20 | 34.17045 | -117.13356 | 20951 ft | 340 kts | 250° |
| 2026-05-05 05:21 | 34.16314 | -117.16062 | 20497 ft | 338 kts | 250° |
| 2026-05-05 05:21 | 34.15589 | -117.18719 | 20044 ft | 337 kts | 250° |
| 2026-05-05 05:21 | 34.14856 | -117.21384 | 19529 ft | 332 kts | 250° |
| 2026-05-05 05:21 | 34.14133 | -117.24008 | 18695 ft | 327 kts | 250° |
| 2026-05-05 05:22 | 34.13422 | -117.26587 | 18149 ft | 323 kts | 250° |
| 2026-05-05 05:22 | 34.12713 | -117.29156 | 17574 ft | 322 kts | 250° |
| 2026-05-05 05:22 | 34.12000 | -117.31735 | 17063 ft | 323 kts | 250° |
| 2026-05-05 05:22 | 34.11289 | -117.34298 | 16559 ft | 322 kts | 250° |
| 2026-05-05 05:23 | 34.10580 | -117.36859 | 16064 ft | 322 kts | 250° |
| 2026-05-05 05:23 | 34.09902 | -117.39394 | 15564 ft | 322 kts | 251° |
| 2026-05-05 05:23 | 34.09250 | -117.41977 | 15068 ft | 322 kts | 251° |
| 2026-05-05 05:23 | 34.08613 | -117.44560 | 14564 ft | 321 kts | 252° |
| 2026-05-05 05:24 | 34.07979 | -117.47148 | 14079 ft | 321 kts | 252° |
| 2026-05-05 05:24 | 34.07342 | -117.49697 | 13779 ft | 315 kts | 249° |
| 2026-05-05 05:24 | 34.06504 | -117.52112 | 13486 ft | 311 kts | 245° |
| 2026-05-05 05:24 | 34.05645 | -117.54498 | 13038 ft | 309 kts | 245° |
| 2026-05-05 05:25 | 34.04794 | -117.56871 | 12569 ft | 308 kts | 245° |
| 2026-05-05 05:25 | 34.03946 | -117.59236 | 12101 ft | 307 kts | 245° |
| 2026-05-05 05:25 | 34.03111 | -117.61559 | 11638 ft | 306 kts | 245° |
| 2026-05-05 05:25 | 34.02264 | -117.63909 | 11176 ft | 305 kts | 245° |
| 2026-05-05 05:26 | 34.01418 | -117.66252 | 10779 ft | 303 kts | 245° |
| 2026-05-05 05:26 | 34.00713 | -117.68647 | 10370 ft | 302 kts | 256° |
| 2026-05-05 05:26 | 34.00425 | -117.71112 | 10242 ft | 292 kts | 262° |
| 2026-05-05 05:26 | 34.00197 | -117.73497 | 10119 ft | 281 kts | 261° |
| 2026-05-05 05:27 | 33.99972 | -117.75809 | 9872 ft | 277 kts | 261° |
| 2026-05-05 05:27 | 33.99743 | -117.78120 | 9465 ft | 278 kts | 261° |
| 2026-05-05 05:27 | 33.99288 | -117.82685 | 8765 ft | 275 kts | 261° |
| 2026-05-05 05:28 | 33.99062 | -117.84963 | 8412 ft | 274 kts | 262° |
| 2026-05-05 05:28 | 33.98838 | -117.87238 | 8078 ft | 272 kts | 262° |
| 2026-05-05 05:28 | 33.98618 | -117.89499 | 7733 ft | 271 kts | 262° |
| 2026-05-05 05:28 | 33.98400 | -117.91755 | 7394 ft | 271 kts | 262° |
| 2026-05-05 05:29 | 33.98179 | -117.94005 | 7053 ft | 270 kts | 262° |
| 2026-05-05 05:29 | 33.97958 | -117.96247 | 6712 ft | 269 kts | 262° |
| 2026-05-05 05:29 | 33.97740 | -117.98453 | 6383 ft | 268 kts | 262° |
| 2026-05-05 05:29 | 33.97518 | -118.00679 | 6025 ft | 268 kts | 262° |
| 2026-05-05 05:30 | 33.97293 | -118.02907 | 5686 ft | 268 kts | 262° |
| 2026-05-05 05:30 | 33.97068 | -118.05108 | 5502 ft | 261 kts | 262° |
| 2026-05-05 05:30 | 33.96864 | -118.07155 | 5225 ft | 252 kts | 262° |
| 2026-05-05 05:30 | 33.96662 | -118.09197 | 4906 ft | 241 kts | 262° |
| 2026-05-05 05:31 | 33.96467 | -118.11158 | 4587 ft | 230 kts | 262° |
| 2026-05-05 05:31 | 33.96280 | -118.13030 | 4278 ft | 219 kts | 262° |
| 2026-05-05 05:31 | 33.96103 | -118.14806 | 3986 ft | 209 kts | 263° |
| 2026-05-05 05:31 | 33.95932 | -118.16509 | 3714 ft | 200 kts | 263° |
| 2026-05-05 05:32 | 33.95771 | -118.18116 | 3455 ft | 191 kts | 263° |
| 2026-05-05 05:32 | 33.95616 | -118.19670 | 3236 ft | 184 kts | 263° |
| 2026-05-05 05:32 | 33.95462 | -118.21197 | 2964 ft | 182 kts | 263° |
| 2026-05-05 05:32 | 33.95311 | -118.22706 | 2714 ft | 181 kts | 263° |
| 2026-05-05 05:33 | 33.95160 | -118.24200 | 2472 ft | 180 kts | 263° |
| 2026-05-05 05:33 | 33.95010 | -118.25689 | 2228 ft | 177 kts | 263° |
| 2026-05-05 05:33 | 33.94866 | -118.27122 | 1986 ft | 166 kts | 263° |
| 2026-05-05 05:33 | 33.94735 | -118.28419 | 1796 ft | 146 kts | 263° |
| 2026-05-05 05:34 | 33.94618 | -118.29571 | 1599 ft | 137 kts | 263° |
| 2026-05-05 05:34 | 33.94504 | -118.30696 | 1414 ft | 134 kts | 264° |
| 2026-05-05 05:34 | 33.94392 | -118.31804 | 1227 ft | 133 kts | 263° |
| 2026-05-05 05:34 | 33.94280 | -118.32908 | 1045 ft | 132 kts | 262° |
| 2026-05-05 05:35 | 33.94167 | -118.34011 | 857 ft | 132 kts | 262° |
| 2026-05-05 05:35 | 33.94048 | -118.35111 | 675 ft | 133 kts | 262° |
| 2026-05-05 05:35 | 33.93937 | -118.36222 | 475 ft | 134 kts | 264° |
| 2026-05-05 05:35 | 33.93841 | -118.37331 | 298 ft | 133 kts | 261° |
| 2026-05-05 05:36 | 33.93721 | -118.38415 | 160 ft | 132 kts | 262° |
| 2026-05-05 05:36 | 33.93618 | -118.39430 | 109 ft | 104 kts | 263° |
| 2026-05-05 05:36 | 33.93551 | -118.40089 | 111 ft | 55 kts | 263° |
| 2026-05-05 05:36 | 33.93539 | -118.40404 | 112 ft | 28 kts | 272° |
| 2026-05-05 05:37 | 33.93573 | -118.40582 | 108 ft | 19 kts | 293° |
| 2026-05-05 05:37 | 33.93595 | -118.40735 | 106 ft | 16 kts | 266° |
| 2026-05-05 05:37 | 33.93616 | -118.40871 | 106 ft | 18 kts | 308° |
| 2026-05-05 05:37 | 33.93718 | -118.40903 | 107 ft | 13 kts | 353° |
| 2026-05-05 05:38 | 33.93798 | -118.40915 | 101 ft | 16 kts | 353° |
| 2026-05-05 05:38 | 33.93870 | -118.40876 | 98 ft | 13 kts | 68° |
| 2026-05-05 05:38 | 33.93884 | -118.40761 | 99 ft | 15 kts | 82° |
| 2026-05-05 05:38 | 33.93896 | -118.40640 | 98 ft | 14 kts | 83° |
| 2026-05-05 05:39 | 33.93907 | -118.40530 | 98 ft | 13 kts | 83° |
| 2026-05-05 05:39 | 33.93918 | -118.40417 | 98 ft | 15 kts | 83° |
| 2026-05-05 05:39 | 33.93931 | -118.40297 | 98 ft | 9 kts | 81° |
| 2026-05-05 05:39 | 33.93940 | -118.40221 | 100 ft | 9 kts | 82° |
| 2026-05-05 05:40 | 33.93945 | -118.40161 | 99 ft | 7 kts | 85° |
| 2026-05-05 05:40 | 33.93949 | -118.40113 | 98 ft | 7 kts | 84° |
| 2026-05-05 05:40 | 33.93975 | -118.40065 | 98 ft | 8 kts | 27° |
| 2026-05-05 05:40 | 33.94029 | -118.40067 | 96 ft | 8 kts | 353° |
| 2026-05-05 05:41 | 33.94080 | -118.40075 | 97 ft | 3 kts | 353° |
| 2026-05-05 05:41 | 33.94107 | -118.40079 | 97 ft | 5 kts | 353° |
| 2026-05-05 05:41 | 33.94145 | -118.40083 | 96 ft | 6 kts | 357° |
| 2026-05-05 05:41 | 33.94159 | -118.40053 | 95 ft | 3 kts | 84° |
| 2026-05-05 05:42 | 33.94159 | -118.40033 | 95 ft | 2 kts | 90° |
| 2026-05-05 05:42 | 33.94159 | -118.40023 | 95 ft | 0 kts | 90° |